createdAt,value
2022-08-09T00:00:06.298Z,99591.06
2022-08-09T00:02:34.247Z,99600.88
2022-08-09T00:06:15.413Z,99593.50
2022-08-09T00:07:49.464Z,99592.00
2022-08-09T00:10:24.800Z,99601.97
2022-08-09T00:12:53.003Z,99588.53
2022-08-09T00:15:26.484Z,99593.19
2022-08-09T00:18:05.861Z,99590.69
2022-08-09T00:20:42.319Z,99597.69
2022-08-09T00:23:56.241Z,99590.94
2022-08-09T00:26:07.026Z,99572.31
2022-08-09T00:28:35.046Z,99572.81
2022-08-09T00:31:09.197Z,99567.81
2022-08-09T00:33:52.046Z,99574.19
2022-08-09T00:36:19.955Z,99571.16
2022-08-09T00:38:50.771Z,99564.47
2022-08-09T00:44:16.633Z,99583.38
2022-08-09T00:44:16.857Z,99572.78
2022-08-09T00:46:56.164Z,99580.91
2022-08-09T00:49:24.847Z,99573.66
2022-08-09T00:51:57.180Z,99572.31
2022-08-09T00:54:31.388Z,99566.34
2022-08-09T00:57:02.928Z,99568.25
2022-08-09T00:59:41.649Z,99570.91
2022-08-09T01:02:22.203Z,99573.03
2022-08-09T01:05:00.944Z,99580.34
2022-08-09T01:07:59.952Z,99554.97
2022-08-09T01:11:15.149Z,99586.38
2022-08-09T01:14:00.090Z,99582.63
2022-08-09T01:16:36.016Z,99587.13
2022-08-09T01:19:39.639Z,99594.00
2022-08-09T01:22:25.047Z,99582.81
2022-08-09T01:24:57.285Z,99575.69
2022-08-09T01:27:29.067Z,99572.16
2022-08-09T01:29:59.579Z,99572.34
2022-08-09T01:32:34.820Z,99555.31
2022-08-09T01:35:37.666Z,99571.03
2022-08-09T01:38:08.050Z,99563.59
2022-08-09T01:40:42.535Z,99578.44
2022-08-09T01:43:11.305Z,99555.81
2022-08-09T01:45:44.663Z,99555.41
2022-08-09T01:48:16.675Z,99561.50
2022-08-09T01:50:48.861Z,99552.91
2022-08-09T01:53:23.978Z,99555.59
2022-08-09T01:55:57.310Z,99556.56
2022-08-09T01:58:27.292Z,99557.91
2022-08-09T02:00:58.039Z,99555.09
2022-08-09T02:03:25.772Z,99536.00
2022-08-09T02:06:04.199Z,99561.13
2022-08-09T02:08:57.425Z,99550.34
2022-08-09T02:11:40.253Z,99546.88
2022-08-09T02:14:15.711Z,99541.16
2022-08-09T02:17:00.067Z,99545.22
2022-08-09T02:19:43.195Z,99543.28
2022-08-09T02:22:19.150Z,99541.66
2022-08-09T02:25:02.256Z,99543.72
2022-08-09T02:27:43.531Z,99530.91
2022-08-09T02:30:19.569Z,99532.47
2022-08-09T02:32:47.702Z,99531.31
2022-08-09T02:36:01.058Z,99541.34
2022-08-09T02:38:27.902Z,99536.41
2022-08-09T02:41:02.089Z,99516.88
2022-08-09T02:43:42.504Z,99530.59
2022-08-09T02:46:22.780Z,99543.38
2022-08-09T02:48:52.864Z,99548.56
2022-08-09T02:51:22.780Z,99485.13
2022-08-09T02:54:00.458Z,99558.16
2022-08-09T02:56:30.543Z,99549.44
2022-08-09T02:59:02.290Z,99549.69
2022-08-09T03:01:43.250Z,99546.13
2022-08-09T03:04:19.814Z,99549.38
2022-08-09T03:06:48.806Z,99563.44
2022-08-09T03:09:17.838Z,99563.78
2022-08-09T03:12:05.591Z,99568.84
2022-08-09T03:14:33.238Z,99549.53
2022-08-09T03:17:01.797Z,99567.88
2022-08-09T03:19:52.618Z,99564.50
2022-08-09T03:22:25.523Z,99557.59
2022-08-09T03:25:05.843Z,99556.22
2022-08-09T03:27:50.841Z,99513.44
2022-08-09T03:30:29.240Z,99559.13
2022-08-09T03:33:05.523Z,99556.94
2022-08-09T03:36:11.630Z,99556.41
2022-08-09T03:38:28.923Z,99567.50
2022-08-09T03:40:58.058Z,99564.72
2022-08-09T03:43:25.467Z,99564.72
2022-08-09T03:46:04.918Z,99572.75
2022-08-09T03:48:51.730Z,99569.56
2022-08-09T03:51:44.452Z,99570.13
2022-08-09T03:54:14.425Z,99562.97
2022-08-09T03:56:42.459Z,99563.09
2022-08-09T03:59:13.841Z,99569.28
2022-08-09T04:01:49.702Z,99560.94
2022-08-09T04:04:18.323Z,99570.59
2022-08-09T04:06:49.225Z,99558.06
2022-08-09T04:09:47.501Z,99559.28
2022-08-09T04:12:11.802Z,99567.59
2022-08-09T04:15:00.393Z,99560.09
2022-08-09T04:17:27.207Z,99563.00
2022-08-09T04:19:56.631Z,99571.91
2022-08-09T04:22:23.845Z,99570.97
2022-08-09T04:24:50.744Z,99572.31
2022-08-09T04:27:21.927Z,99566.88
2022-08-09T04:29:49.597Z,99480.88
2022-08-09T04:32:31.413Z,99564.88
2022-08-09T04:35:01.289Z,99569.31
2022-08-09T04:37:42.037Z,99566.66
2022-08-09T04:40:28.615Z,99564.91
2022-08-09T04:42:59.658Z,99551.94
2022-08-09T04:45:30.336Z,99562.97
2022-08-09T04:48:04.015Z,99555.31
2022-08-09T04:50:37.675Z,99566.41
2022-08-09T04:53:13.503Z,99558.59
2022-08-09T04:55:58.652Z,99573.25
2022-08-09T04:58:27.791Z,99569.38
2022-08-09T05:00:56.163Z,99576.72
2022-08-09T05:03:41.265Z,99573.00
2022-08-09T05:06:25.857Z,99587.25
2022-08-09T05:09:00.451Z,99586.25
2022-08-09T05:11:32.352Z,99589.72
2022-08-09T05:14:05.763Z,99550.03
2022-08-09T05:16:58.071Z,99591.38
2022-08-09T05:19:26.100Z,99591.91
2022-08-09T05:21:55.953Z,99577.88
2022-08-09T05:24:24.624Z,99587.06
2022-08-09T05:26:53.164Z,99579.50
2022-08-09T05:29:23.925Z,99577.13
2022-08-09T05:31:57.046Z,99584.41
2022-08-09T05:34:31.268Z,99572.31
2022-08-09T05:37:01.458Z,99565.53
2022-08-09T05:39:36.422Z,99585.97
2022-08-09T05:42:20.607Z,99577.28
2022-08-09T05:44:55.877Z,99581.84
2022-08-09T05:47:24.793Z,99583.56
2022-08-09T05:50:31.295Z,99582.47
2022-08-09T05:52:42.209Z,99579.03
2022-08-09T05:55:20.767Z,99572.78
2022-08-09T05:57:51.191Z,99579.50
2022-08-09T06:00:29.006Z,99576.78
2022-08-09T06:03:01.411Z,99579.69
2022-08-09T06:05:54.512Z,99583.81
2022-08-09T06:08:19.431Z,99584.97
2022-08-09T06:10:52.104Z,99584.53
2022-08-09T06:13:20.636Z,99582.69
2022-08-09T06:15:52.637Z,99584.81
2022-08-09T06:18:25.305Z,99592.44
2022-08-09T06:20:57.827Z,99587.78
2022-08-09T06:23:57.902Z,99582.53
2022-08-09T06:26:20.098Z,99580.56
2022-08-09T06:29:00.035Z,99585.50
2022-08-09T06:31:40.376Z,99584.00
2022-08-09T06:34:22.660Z,99581.34
2022-08-09T06:36:57.410Z,99580.94
2022-08-09T06:39:48.164Z,99578.81
2022-08-09T06:42:15.927Z,99583.97
2022-08-09T06:44:43.460Z,99574.25
2022-08-09T06:47:10.696Z,99576.16
2022-08-09T06:50:12.234Z,99581.19
2022-08-09T06:52:26.223Z,99590.66
2022-08-09T06:54:54.227Z,99574.78
2022-08-09T06:57:25.967Z,99588.28
2022-08-09T07:00:56.139Z,99587.06
2022-08-09T07:02:57.517Z,99592.09
2022-08-09T07:06:02.418Z,99588.38
2022-08-09T07:08:12.453Z,99583.88
2022-08-09T07:10:39.428Z,99590.06
2022-08-09T07:13:27.674Z,99587.91
2022-08-09T07:16:43.014Z,99586.66
2022-08-09T07:18:40.392Z,99598.25
2022-08-09T07:21:08.277Z,99599.13
2022-08-09T07:23:36.277Z,99600.94
2022-08-09T07:26:04.402Z,99600.50
2022-08-09T07:28:34.600Z,99593.66
2022-08-09T07:31:02.213Z,99604.66
2022-08-09T07:33:53.248Z,99611.19
2022-08-09T07:36:18.764Z,99599.63
2022-08-09T07:38:52.598Z,99599.16
2022-08-09T07:41:26.403Z,99612.75
2022-08-09T07:43:56.047Z,99597.03
2022-08-09T07:46:23.516Z,99600.31
2022-08-09T07:48:59.584Z,99601.88
2022-08-09T07:52:05.255Z,99612.06
2022-08-09T07:54:15.318Z,99607.97
2022-08-09T07:56:49.640Z,99612.66
2022-08-09T07:59:33.916Z,99600.94
2022-08-09T08:02:07.083Z,99601.91
2022-08-09T08:04:37.346Z,99598.13
2022-08-09T08:07:21.575Z,99610.31
2022-08-09T08:10:07.527Z,99549.38
2022-08-09T08:12:42.639Z,99591.34
2022-08-09T08:15:13.749Z,99584.91
2022-08-09T08:17:53.852Z,99584.97
2022-08-09T08:20:29.490Z,99591.63
2022-08-09T08:23:01.650Z,99581.88
2022-08-09T08:25:44.736Z,99490.09
2022-08-09T08:28:15.338Z,99575.06
2022-08-09T08:30:44.413Z,99579.94
2022-08-09T08:33:23.007Z,99552.81
2022-08-09T08:35:59.846Z,99552.72
2022-08-09T08:38:29.012Z,99566.50
2022-08-09T08:40:57.084Z,99573.06
2022-08-09T08:43:24.329Z,99566.22
2022-08-09T08:46:17.122Z,99549.00
2022-08-09T08:48:51.681Z,99557.34
2022-08-09T08:51:21.155Z,99576.06
2022-08-09T08:54:03.503Z,99568.09
2022-08-09T08:56:37.499Z,99556.31
2022-08-09T08:59:19.734Z,99553.84
2022-08-09T09:01:57.223Z,99557.91
2022-08-09T09:04:31.978Z,99564.41
2022-08-09T09:07:10.121Z,99562.88
2022-08-09T09:09:57.992Z,99566.41
2022-08-09T09:12:29.905Z,99573.81
2022-08-09T09:15:00.967Z,99563.84
2022-08-09T09:17:48.089Z,99569.16
2022-08-09T09:20:16.021Z,99555.19
2022-08-09T09:23:01.729Z,99564.34
2022-08-09T09:26:02.078Z,99567.91
2022-08-09T09:29:02.875Z,99558.34
2022-08-09T09:32:06.598Z,99562.19
2022-08-09T09:34:14.672Z,99544.47
2022-08-09T09:36:46.789Z,99561.56
2022-08-09T09:39:20.450Z,99556.00
2022-08-09T09:41:50.890Z,99547.41
2022-08-09T09:44:35.120Z,99555.69
2022-08-09T09:47:13.534Z,99551.16
2022-08-09T09:50:07.363Z,99554.44
2022-08-09T09:52:54.053Z,99559.94
2022-08-09T09:55:27.953Z,99541.13
2022-08-09T09:58:04.814Z,99569.16
2022-08-09T10:00:54.597Z,99538.78
2022-08-09T10:03:58.044Z,99547.13
2022-08-09T10:06:42.567Z,99560.31
2022-08-09T10:09:23.184Z,99549.59
2022-08-09T10:12:11.826Z,99531.50
2022-08-09T10:17:39.554Z,99540.38
2022-08-09T10:20:35.682Z,99542.38
2022-08-09T10:23:32.531Z,99550.16
2022-08-09T10:26:07.755Z,99547.38
2022-08-09T10:28:39.915Z,99534.97
2022-08-09T10:34:08.258Z,99541.72
2022-08-09T10:36:38.967Z,99560.03
2022-08-09T10:39:15.567Z,99552.00
2022-08-09T10:41:47.726Z,99548.91
2022-08-09T10:44:18.911Z,99540.16
2022-08-09T10:47:20.551Z,99532.84
2022-08-09T10:50:16.136Z,99551.00
2022-08-09T10:53:02.098Z,99543.53
2022-08-09T10:55:35.871Z,99548.78
2022-08-09T10:58:37.458Z,99532.47
2022-08-09T11:03:14.275Z,99542.31
2022-08-09T11:04:20.005Z,99537.78
2022-08-09T11:06:59.993Z,99544.34
2022-08-09T11:09:47.549Z,99537.19
2022-08-09T11:12:29.442Z,99523.72
2022-08-09T11:15:20.504Z,99523.50
2022-08-09T11:18:02.931Z,99524.72
2022-08-09T11:20:57.107Z,99521.22
2022-08-09T11:23:30.260Z,99512.69
2022-08-09T11:25:57.232Z,99510.59
2022-08-09T11:28:54.156Z,99504.75
2022-08-09T11:31:49.580Z,99498.66
2022-08-09T11:34:42.996Z,99507.53
2022-08-09T11:37:18.194Z,99519.31
2022-08-09T11:40:04.000Z,99516.06
2022-08-09T11:42:48.559Z,99506.38
2022-08-09T11:45:44.242Z,99504.34
2022-08-09T11:48:26.758Z,99498.00
2022-08-09T11:52:49.292Z,99493.34
2022-08-09T11:54:27.843Z,99496.84
2022-08-09T11:58:00.662Z,99479.22
2022-08-09T12:00:30.821Z,99474.25
2022-08-09T12:03:00.685Z,99491.31
2022-08-09T12:05:48.884Z,99477.97
2022-08-09T12:08:21.765Z,99475.53
2022-08-09T12:10:54.748Z,99478.84
2022-08-09T12:14:10.790Z,99461.53
2022-08-09T12:16:39.991Z,99470.06
2022-08-09T12:19:11.334Z,99480.00
2022-08-09T12:21:50.820Z,99482.44
2022-08-09T12:24:24.395Z,99451.97
2022-08-09T12:28:58.297Z,99460.97
2022-08-09T12:30:01.992Z,99439.78
2022-08-09T12:32:41.349Z,99436.69
2022-08-09T12:35:12.375Z,99427.00
2022-08-09T12:37:49.888Z,99435.75
2022-08-09T12:40:19.124Z,99443.44
2022-08-09T12:42:50.415Z,99443.13
2022-08-09T12:45:33.975Z,99439.31
2022-08-09T12:48:10.767Z,99429.09
2022-08-09T12:50:48.164Z,99439.03
2022-08-09T12:53:37.247Z,99443.91
2022-08-09T12:56:39.225Z,99458.94
2022-08-09T12:59:14.355Z,99438.75
2022-08-09T13:01:46.806Z,99433.56
2022-08-09T13:04:35.899Z,99384.00
2022-08-09T13:07:16.924Z,99451.88
2022-08-09T13:09:55.219Z,99415.03
2022-08-09T13:12:27.087Z,99422.00
2022-08-09T13:15:07.710Z,99408.16
2022-08-09T13:18:03.480Z,99415.31
2022-08-09T13:21:04.064Z,99405.22
2022-08-09T13:24:16.068Z,99414.47
2022-08-09T13:26:42.395Z,99413.44
2022-08-09T13:29:28.586Z,99420.41
2022-08-09T13:32:13.680Z,99417.41
2022-08-09T13:34:46.202Z,99414.34
2022-08-09T13:37:51.315Z,99406.84
2022-08-09T13:41:50.812Z,99418.47
2022-08-09T13:42:50.747Z,99407.34
2022-08-09T13:45:19.499Z,99411.41
2022-08-09T13:47:51.829Z,99431.50
2022-08-09T13:50:30.040Z,99407.19
2022-08-09T13:52:57.745Z,99418.50
2022-08-09T13:55:24.662Z,99418.75
2022-08-09T13:57:58.026Z,99416.88
2022-08-09T14:00:28.469Z,99403.59
2022-08-09T14:03:03.809Z,99407.41
2022-08-09T14:05:56.803Z,99406.81
2022-08-09T14:08:31.569Z,99400.25
2022-08-09T14:10:59.633Z,99407.63
2022-08-09T14:14:22.449Z,99401.75
2022-08-09T14:16:19.270Z,99389.84
2022-08-09T14:18:49.386Z,99392.44
2022-08-09T14:21:24.394Z,99404.72
2022-08-09T14:23:53.684Z,99394.69
2022-08-09T14:26:21.549Z,99402.91
2022-08-09T14:28:48.420Z,99387.91
2022-08-09T14:31:15.212Z,99397.69
2022-08-09T14:33:42.253Z,99395.06
2022-08-09T14:36:19.785Z,99396.91
2022-08-09T14:38:52.599Z,99385.72
2022-08-09T14:41:26.713Z,99383.72
2022-08-09T14:44:07.477Z,99381.81
2022-08-09T14:47:00.750Z,99380.56
2022-08-09T14:49:25.892Z,99354.63
2022-08-09T14:51:58.957Z,99388.38
2022-08-09T14:54:27.979Z,99385.44
2022-08-09T14:56:59.049Z,99370.97
2022-08-09T14:59:28.453Z,99390.81
2022-08-09T15:01:55.599Z,99379.34
2022-08-09T15:04:25.174Z,99377.13
2022-08-09T15:06:52.521Z,99375.75
2022-08-09T15:10:03.367Z,99376.69
2022-08-09T15:12:09.539Z,99374.06
2022-08-09T15:14:38.965Z,99366.66
2022-08-09T15:17:09.905Z,99366.22
2022-08-09T15:19:59.172Z,99367.66
2022-08-09T15:22:26.031Z,99361.81
2022-08-09T15:24:53.290Z,99367.75
2022-08-09T15:27:20.070Z,99356.44
2022-08-09T15:30:55.390Z,99381.53
2022-08-09T15:32:33.774Z,99369.56
2022-08-09T15:35:01.430Z,99379.22
2022-08-09T15:37:37.508Z,99359.84
2022-08-09T15:40:25.273Z,99361.88
2022-08-09T15:42:59.666Z,99384.59
2022-08-09T15:45:29.392Z,99378.25
2022-08-09T15:48:06.509Z,99379.91
2022-08-09T15:50:39.143Z,99386.16
2022-08-09T15:53:32.694Z,99377.66
2022-08-09T15:56:04.669Z,99372.38
2022-08-09T15:58:40.615Z,99374.91
2022-08-09T16:01:08.408Z,99383.16
2022-08-09T16:03:38.599Z,99369.41
2022-08-09T16:06:32.703Z,99388.00
2022-08-09T16:08:56.285Z,99383.94
2022-08-09T16:11:28.809Z,99378.88
2022-08-09T16:14:03.928Z,99379.94
2022-08-09T16:16:37.339Z,99374.06
2022-08-09T16:19:07.554Z,99392.44
2022-08-09T16:21:35.537Z,99394.31
2022-08-09T16:24:13.030Z,99402.56
2022-08-09T16:26:53.671Z,99395.53
2022-08-09T16:29:37.286Z,99392.25
2022-08-09T16:32:19.130Z,99395.88
2022-08-09T16:34:56.589Z,99397.34
2022-08-09T16:37:55.134Z,99396.47
2022-08-09T16:40:14.122Z,99379.09
2022-08-09T16:42:48.316Z,99406.13
2022-08-09T16:45:19.659Z,99414.19
2022-08-09T16:48:43.170Z,99407.78
2022-08-09T16:50:38.623Z,99410.88
2022-08-09T16:53:06.239Z,99409.63
2022-08-09T16:55:59.089Z,99407.72
2022-08-09T16:58:21.045Z,99404.59
2022-08-09T17:00:49.107Z,99411.31
2022-08-09T17:03:21.348Z,99404.34
2022-08-09T17:06:09.381Z,99413.75
2022-08-09T17:08:43.016Z,99414.94
2022-08-09T17:11:15.232Z,99414.25
2022-08-09T17:13:45.028Z,99415.50
2022-08-09T17:16:12.100Z,99425.25
2022-08-09T17:18:39.138Z,99430.38
2022-08-09T17:21:05.906Z,99425.03
2022-08-09T17:24:21.381Z,99428.69
2022-08-09T17:26:31.315Z,99430.72
2022-08-09T17:28:59.607Z,99433.72
2022-08-09T17:31:26.815Z,99438.66
2022-08-09T17:33:56.958Z,99428.50
2022-08-09T17:36:25.898Z,99430.00
2022-08-09T17:38:58.664Z,99443.94
2022-08-09T17:41:38.922Z,99439.69
2022-08-09T17:44:38.805Z,99435.56
2022-08-09T17:46:55.568Z,99446.09
2022-08-09T17:49:22.861Z,99446.47
2022-08-09T17:51:50.508Z,99449.41
2022-08-09T17:54:17.736Z,99457.66
2022-08-09T17:56:52.070Z,99456.56
2022-08-09T17:59:19.354Z,99448.84
2022-08-09T18:02:08.025Z,99460.75
2022-08-09T18:04:33.197Z,99458.41
2022-08-09T18:06:59.971Z,99472.22
2022-08-09T18:09:41.056Z,99469.81
2022-08-09T18:12:17.637Z,99470.16
2022-08-09T18:14:50.094Z,99473.91
2022-08-09T18:17:27.501Z,99469.38
2022-08-09T18:20:59.346Z,99487.72
2022-08-09T18:22:55.555Z,99476.81
2022-08-09T18:25:51.063Z,99472.00
2022-08-09T18:28:21.560Z,99485.00
2022-08-09T18:30:57.514Z,99484.38
2022-08-09T18:33:24.398Z,99483.25
2022-08-09T18:35:59.098Z,99489.69
2022-08-09T18:38:27.393Z,99493.69
2022-08-09T18:40:55.532Z,99499.47
2022-08-09T18:43:23.602Z,99499.16
2022-08-09T18:46:46.261Z,99491.44
2022-08-09T18:48:37.561Z,99490.59
2022-08-09T18:51:04.768Z,99501.84
2022-08-09T18:53:56.398Z,99495.56
2022-08-09T18:56:28.021Z,99494.88
2022-08-09T18:58:56.444Z,99496.28
2022-08-09T19:01:24.028Z,99493.88
2022-08-09T19:04:01.523Z,99479.03
2022-08-09T19:06:33.980Z,99495.38
2022-08-09T19:09:02.700Z,99489.38
2022-08-09T19:11:37.496Z,99487.16
2022-08-09T19:14:06.276Z,99491.00
2022-08-09T19:16:36.445Z,99487.59
2022-08-09T19:19:19.313Z,99489.97
2022-08-09T19:22:06.811Z,99491.38
2022-08-09T19:25:11.956Z,99499.19
2022-08-09T19:27:22.633Z,99495.28
2022-08-09T19:30:21.497Z,99509.69
2022-08-09T19:32:38.250Z,99504.13
2022-08-09T19:35:05.818Z,99504.25
2022-08-09T19:37:54.913Z,99513.97
2022-08-09T19:40:20.621Z,99506.00
2022-08-09T19:42:49.703Z,99513.91
2022-08-09T19:45:17.041Z,99508.88
2022-08-09T19:47:44.903Z,99512.66
2022-08-09T19:50:49.606Z,99519.75
2022-08-09T19:53:04.473Z,99525.25
2022-08-09T19:56:03.306Z,99506.03
2022-08-09T19:58:29.725Z,99522.16
2022-08-09T20:00:57.905Z,99524.31
2022-08-09T20:04:09.550Z,99533.34
2022-08-09T20:06:23.056Z,99537.56
2022-08-09T20:08:56.538Z,99526.97
2022-08-09T20:11:25.794Z,99538.81
2022-08-09T20:13:54.586Z,99530.44
2022-08-09T20:16:33.459Z,99538.13
2022-08-09T20:19:47.669Z,99548.69
2022-08-09T20:21:57.269Z,99523.81
2022-08-09T20:24:31.775Z,99542.88
2022-08-09T20:27:02.920Z,99540.94
2022-08-09T20:29:37.833Z,99536.28
2022-08-09T20:32:30.749Z,99536.88
2022-08-09T20:34:57.938Z,99542.81
2022-08-09T20:37:25.580Z,99529.94
2022-08-09T20:40:18.393Z,99545.78
2022-08-09T20:42:59.581Z,99542.16
2022-08-09T20:45:59.419Z,99544.47
2022-08-09T20:48:25.587Z,99529.28
2022-08-09T20:50:58.081Z,99536.66
2022-08-09T20:53:35.220Z,99529.06
2022-08-09T20:56:06.407Z,99544.41
2022-08-09T20:58:35.985Z,99526.16
2022-08-09T21:01:33.055Z,99545.31
2022-08-09T21:05:49.798Z,99537.75
2022-08-09T21:06:41.511Z,99539.53
2022-08-09T21:09:11.749Z,99542.06
2022-08-09T21:14:30.835Z,99534.44
2022-08-09T21:16:59.353Z,99541.16
2022-08-09T21:20:18.832Z,99536.22
2022-08-09T21:22:35.906Z,99539.22
2022-08-09T21:25:20.880Z,99535.72
2022-08-09T21:27:51.173Z,99545.22
2022-08-09T21:30:19.730Z,99536.06
2022-08-09T21:32:49.754Z,99529.50
2022-08-09T21:35:16.786Z,99534.53
2022-08-09T21:37:56.896Z,99531.00
2022-08-09T21:40:30.131Z,99513.38
2022-08-09T21:42:59.298Z,99530.19
2022-08-09T21:45:26.861Z,99535.13
2022-08-09T21:47:54.456Z,99528.38
2022-08-09T21:50:35.988Z,99526.06
2022-08-09T21:53:40.285Z,99522.66
2022-08-09T21:55:55.080Z,99515.41
2022-08-09T21:58:30.929Z,99518.88
2022-08-09T22:00:58.463Z,99509.97
2022-08-09T22:03:26.168Z,99495.03
2022-08-09T22:05:54.314Z,99510.28
2022-08-09T22:08:23.029Z,99506.69
2022-08-09T22:11:26.456Z,99503.28
2022-08-09T22:13:43.254Z,99499.19
2022-08-09T22:16:12.099Z,99503.47
2022-08-09T22:18:53.407Z,99519.59
2022-08-09T22:21:24.869Z,99527.56
2022-08-09T22:23:59.195Z,99522.53
2022-08-09T22:26:34.878Z,99522.53
2022-08-09T22:29:06.964Z,99513.69
2022-08-09T22:31:35.713Z,99514.47
2022-08-09T22:34:02.456Z,99516.78
2022-08-09T22:36:29.244Z,99514.75
2022-08-09T22:39:46.824Z,99519.88
2022-08-09T22:41:59.762Z,99513.75
2022-08-09T22:44:32.655Z,99518.56
2022-08-09T22:48:18.625Z,99523.22
2022-08-09T22:49:47.679Z,99511.97
2022-08-09T22:52:19.708Z,99529.78
2022-08-09T22:54:48.349Z,99532.50
2022-08-09T22:57:15.268Z,99509.16
2022-08-09T22:59:55.858Z,99523.56
2022-08-09T23:02:25.537Z,99522.44
2022-08-09T23:04:54.715Z,99514.38
2022-08-09T23:08:27.483Z,99504.91
2022-08-09T23:10:31.746Z,99515.59
2022-08-09T23:12:59.081Z,99504.59
2022-08-09T23:15:26.804Z,99507.03
2022-08-09T23:17:53.587Z,99497.84
2022-08-09T23:20:20.586Z,99504.88
2022-08-09T23:22:47.347Z,99500.22
2022-08-09T23:25:14.280Z,99511.72
2022-08-09T23:28:14.972Z,99503.00
2022-08-09T23:30:28.442Z,99500.16
2022-08-09T23:32:55.315Z,99501.56
2022-08-09T23:35:22.264Z,99506.00
2022-08-09T23:37:49.053Z,99497.56
2022-08-09T23:40:17.173Z,99505.41
2022-08-09T23:42:44.040Z,99501.88
2022-08-09T23:45:11.314Z,99500.16
2022-08-09T23:47:58.179Z,99500.47
2022-08-09T23:50:25.239Z,99495.22
2022-08-09T23:52:52.061Z,99502.38
2022-08-09T23:55:19.083Z,99497.53
2022-08-09T23:58:08.261Z,99484.94
